sensor_id;sensor_type;location;lat;lon;timestamp;P1;durP1;ratioP1;P2;durP2;ratioP2
45812;SDS011;31519;45.408;10.962;2024-01-25T00:02:25;84.65;;;42.40;;
45812;SDS011;31519;45.408;10.962;2024-01-25T00:04:54;95.00;;;40.63;;
45812;SDS011;31519;45.408;10.962;2024-01-25T00:07:22;85.30;;;40.30;;
45812;SDS011;31519;45.408;10.962;2024-01-25T00:09:51;86.55;;;41.20;;
45812;SDS011;31519;45.408;10.962;2024-01-25T00:12:19;76.97;;;39.20;;
45812;SDS011;31519;45.408;10.962;2024-01-25T00:14:47;82.90;;;39.80;;
45812;SDS011;31519;45.408;10.962;2024-01-25T00:17:16;94.43;;;42.85;;
45812;SDS011;31519;45.408;10.962;2024-01-25T00:19:44;83.88;;;40.72;;
45812;SDS011;31519;45.408;10.962;2024-01-25T00:22:13;87.63;;;40.25;;
45812;SDS011;31519;45.408;10.962;2024-01-25T00:24:41;82.97;;;42.83;;
45812;SDS011;31519;45.408;10.962;2024-01-25T00:27:10;94.10;;;41.78;;
45812;SDS011;31519;45.408;10.962;2024-01-25T00:29:38;84.18;;;40.88;;
45812;SDS011;31519;45.408;10.962;2024-01-25T00:32:07;78.90;;;41.97;;
45812;SDS011;31519;45.408;10.962;2024-01-25T00:34:35;84.32;;;41.30;;
45812;SDS011;31519;45.408;10.962;2024-01-25T00:37:04;77.75;;;37.95;;
45812;SDS011;31519;45.408;10.962;2024-01-25T00:39:33;74.47;;;37.60;;
45812;SDS011;31519;45.408;10.962;2024-01-25T00:42:05;81.28;;;40.42;;
45812;SDS011;31519;45.408;10.962;2024-01-25T00:44:34;81.38;;;39.80;;
45812;SDS011;31519;45.408;10.962;2024-01-25T00:47:02;75.22;;;39.17;;
45812;SDS011;31519;45.408;10.962;2024-01-25T00:49:31;76.45;;;41.45;;
45812;SDS011;31519;45.408;10.962;2024-01-25T00:52:00;79.97;;;38.15;;
45812;SDS011;31519;45.408;10.962;2024-01-25T00:54:32;74.40;;;38.60;;
45812;SDS011;31519;45.408;10.962;2024-01-25T00:57:01;82.07;;;40.65;;
45812;SDS011;31519;45.408;10.962;2024-01-25T00:59:29;82.50;;;37.72;;
45812;SDS011;31519;45.408;10.962;2024-01-25T01:01:58;75.40;;;39.60;;
45812;SDS011;31519;45.408;10.962;2024-01-25T01:04:30;82.93;;;39.67;;
45812;SDS011;31519;45.408;10.962;2024-01-25T01:07:13;69.88;;;37.70;;
45812;SDS011;31519;45.408;10.962;2024-01-25T01:09:43;85.18;;;38.75;;
45812;SDS011;31519;45.408;10.962;2024-01-25T01:12:11;77.78;;;38.38;;
45812;SDS011;31519;45.408;10.962;2024-01-25T01:14:39;80.57;;;38.92;;
45812;SDS011;31519;45.408;10.962;2024-01-25T01:17:08;80.13;;;39.90;;
45812;SDS011;31519;45.408;10.962;2024-01-25T01:19:36;80.90;;;38.67;;
45812;SDS011;31519;45.408;10.962;2024-01-25T01:22:05;74.82;;;39.13;;
45812;SDS011;31519;45.408;10.962;2024-01-25T01:24:33;91.68;;;38.72;;
45812;SDS011;31519;45.408;10.962;2024-01-25T01:27:02;78.60;;;38.75;;
45812;SDS011;31519;45.408;10.962;2024-01-25T01:29:30;85.05;;;37.90;;
45812;SDS011;31519;45.408;10.962;2024-01-25T01:31:58;89.07;;;38.17;;
45812;SDS011;31519;45.408;10.962;2024-01-25T01:34:27;86.43;;;39.58;;
45812;SDS011;31519;45.408;10.962;2024-01-25T01:36:55;76.57;;;38.15;;
45812;SDS011;31519;45.408;10.962;2024-01-25T01:39:23;75.03;;;38.70;;
45812;SDS011;31519;45.408;10.962;2024-01-25T01:41:53;79.25;;;38.75;;
45812;SDS011;31519;45.408;10.962;2024-01-25T01:44:21;73.85;;;36.83;;
45812;SDS011;31519;45.408;10.962;2024-01-25T01:46:50;77.47;;;39.80;;
45812;SDS011;31519;45.408;10.962;2024-01-25T01:49:18;83.07;;;38.40;;
45812;SDS011;31519;45.408;10.962;2024-01-25T01:51:47;74.70;;;35.88;;
45812;SDS011;31519;45.408;10.962;2024-01-25T01:54:17;80.15;;;38.58;;
45812;SDS011;31519;45.408;10.962;2024-01-25T01:56:45;78.55;;;39.92;;
45812;SDS011;31519;45.408;10.962;2024-01-25T01:59:14;75.13;;;36.40;;
45812;SDS011;31519;45.408;10.962;2024-01-25T02:01:44;67.00;;;35.05;;
45812;SDS011;31519;45.408;10.962;2024-01-25T02:04:12;85.38;;;39.20;;
45812;SDS011;31519;45.408;10.962;2024-01-25T02:06:41;71.47;;;37.60;;
45812;SDS011;31519;45.408;10.962;2024-01-25T02:09:12;75.47;;;38.10;;
45812;SDS011;31519;45.408;10.962;2024-01-25T02:11:41;72.57;;;36.60;;
45812;SDS011;31519;45.408;10.962;2024-01-25T02:14:09;84.30;;;37.78;;
45812;SDS011;31519;45.408;10.962;2024-01-25T02:16:41;83.45;;;37.10;;
45812;SDS011;31519;45.408;10.962;2024-01-25T02:19:13;84.60;;;38.42;;
45812;SDS011;31519;45.408;10.962;2024-01-25T02:21:41;77.53;;;36.85;;
45812;SDS011;31519;45.408;10.962;2024-01-25T02:24:10;75.22;;;34.58;;
45812;SDS011;31519;45.408;10.962;2024-01-25T02:26:38;71.65;;;35.55;;
45812;SDS011;31519;45.408;10.962;2024-01-25T02:29:07;78.93;;;36.60;;
45812;SDS011;31519;45.408;10.962;2024-01-25T02:31:37;73.68;;;36.75;;
45812;SDS011;31519;45.408;10.962;2024-01-25T02:34:05;72.32;;;35.75;;
45812;SDS011;31519;45.408;10.962;2024-01-25T02:36:34;77.68;;;35.83;;
45812;SDS011;31519;45.408;10.962;2024-01-25T02:39:02;71.30;;;35.65;;
45812;SDS011;31519;45.408;10.962;2024-01-25T02:41:32;71.63;;;34.90;;
45812;SDS011;31519;45.408;10.962;2024-01-25T02:44:01;74.55;;;36.00;;
45812;SDS011;31519;45.408;10.962;2024-01-25T02:46:29;68.63;;;37.63;;
45812;SDS011;31519;45.408;10.962;2024-01-25T02:48:57;72.38;;;37.10;;
45812;SDS011;31519;45.408;10.962;2024-01-25T02:51:26;66.28;;;34.80;;
45812;SDS011;31519;45.408;10.962;2024-01-25T02:53:54;69.00;;;35.20;;
45812;SDS011;31519;45.408;10.962;2024-01-25T02:56:23;68.82;;;35.65;;
45812;SDS011;31519;45.408;10.962;2024-01-25T02:58:51;70.07;;;33.47;;
45812;SDS011;31519;45.408;10.962;2024-01-25T03:01:20;67.18;;;34.00;;
45812;SDS011;31519;45.408;10.962;2024-01-25T03:03:48;72.95;;;34.85;;
45812;SDS011;31519;45.408;10.962;2024-01-25T03:06:17;69.25;;;34.55;;
45812;SDS011;31519;45.408;10.962;2024-01-25T03:08:45;87.68;;;35.05;;
45812;SDS011;31519;45.408;10.962;2024-01-25T03:11:13;86.60;;;38.03;;
45812;SDS011;31519;45.408;10.962;2024-01-25T03:13:41;71.28;;;37.03;;
45812;SDS011;31519;45.408;10.962;2024-01-25T03:16:10;74.13;;;34.47;;
45812;SDS011;31519;45.408;10.962;2024-01-25T03:18:38;68.00;;;33.33;;
45812;SDS011;31519;45.408;10.962;2024-01-25T03:21:07;69.82;;;36.38;;
45812;SDS011;31519;45.408;10.962;2024-01-25T03:23:35;75.20;;;34.63;;
45812;SDS011;31519;45.408;10.962;2024-01-25T03:26:04;69.57;;;35.13;;
45812;SDS011;31519;45.408;10.962;2024-01-25T03:28:34;68.85;;;34.00;;
45812;SDS011;31519;45.408;10.962;2024-01-25T03:31:03;74.30;;;37.53;;
45812;SDS011;31519;45.408;10.962;2024-01-25T03:33:32;74.82;;;34.70;;
45812;SDS011;31519;45.408;10.962;2024-01-25T03:36:03;70.88;;;34.20;;
45812;SDS011;31519;45.408;10.962;2024-01-25T03:38:32;67.50;;;35.70;;
45812;SDS011;31519;45.408;10.962;2024-01-25T03:41:01;69.85;;;35.65;;
45812;SDS011;31519;45.408;10.962;2024-01-25T03:43:29;66.82;;;33.53;;
45812;SDS011;31519;45.408;10.962;2024-01-25T03:46:10;67.80;;;33.90;;
45812;SDS011;31519;45.408;10.962;2024-01-25T03:48:39;75.07;;;33.47;;
45812;SDS011;31519;45.408;10.962;2024-01-25T03:51:08;65.60;;;34.95;;
45812;SDS011;31519;45.408;10.962;2024-01-25T03:53:36;74.55;;;33.50;;
45812;SDS011;31519;45.408;10.962;2024-01-25T03:56:10;75.32;;;32.40;;
45812;SDS011;31519;45.408;10.962;2024-01-25T03:58:40;77.35;;;32.33;;
45812;SDS011;31519;45.408;10.962;2024-01-25T04:01:08;63.08;;;32.83;;
45812;SDS011;31519;45.408;10.962;2024-01-25T04:03:38;69.07;;;32.50;;
45812;SDS011;31519;45.408;10.962;2024-01-25T04:06:07;64.63;;;32.45;;
45812;SDS011;31519;45.408;10.962;2024-01-25T04:08:36;66.82;;;33.05;;
45812;SDS011;31519;45.408;10.962;2024-01-25T04:11:04;63.03;;;32.58;;
45812;SDS011;31519;45.408;10.962;2024-01-25T04:13:32;68.03;;;32.90;;
45812;SDS011;31519;45.408;10.962;2024-01-25T04:16:01;74.80;;;33.85;;
45812;SDS011;31519;45.408;10.962;2024-01-25T04:18:29;66.68;;;35.28;;
45812;SDS011;31519;45.408;10.962;2024-01-25T04:20:58;64.32;;;31.50;;
45812;SDS011;31519;45.408;10.962;2024-01-25T04:23:28;63.55;;;33.15;;
45812;SDS011;31519;45.408;10.962;2024-01-25T04:25:56;56.10;;;30.92;;
45812;SDS011;31519;45.408;10.962;2024-01-25T04:28:24;70.95;;;32.83;;
45812;SDS011;31519;45.408;10.962;2024-01-25T04:30:53;68.40;;;32.95;;
45812;SDS011;31519;45.408;10.962;2024-01-25T04:33:21;63.20;;;29.92;;
45812;SDS011;31519;45.408;10.962;2024-01-25T04:35:50;57.03;;;29.20;;
45812;SDS011;31519;45.408;10.962;2024-01-25T04:38:18;65.40;;;29.48;;
45812;SDS011;31519;45.408;10.962;2024-01-25T04:40:47;56.47;;;28.67;;
45812;SDS011;31519;45.408;10.962;2024-01-25T04:43:15;64.53;;;31.02;;
45812;SDS011;31519;45.408;10.962;2024-01-25T04:45:43;56.75;;;28.65;;
45812;SDS011;31519;45.408;10.962;2024-01-25T04:48:11;51.25;;;27.45;;
45812;SDS011;31519;45.408;10.962;2024-01-25T04:50:40;55.03;;;25.73;;
45812;SDS011;31519;45.408;10.962;2024-01-25T04:53:09;60.83;;;27.98;;
45812;SDS011;31519;45.408;10.962;2024-01-25T04:55:37;56.10;;;27.15;;
45812;SDS011;31519;45.408;10.962;2024-01-25T04:58:05;56.13;;;27.05;;
45812;SDS011;31519;45.408;10.962;2024-01-25T05:00:34;55.55;;;26.40;;
45812;SDS011;31519;45.408;10.962;2024-01-25T05:03:03;60.05;;;29.20;;
45812;SDS011;31519;45.408;10.962;2024-01-25T05:05:32;55.70;;;28.08;;
45812;SDS011;31519;45.408;10.962;2024-01-25T05:08:00;50.38;;;25.85;;
45812;SDS011;31519;45.408;10.962;2024-01-25T05:10:29;51.38;;;22.80;;
45812;SDS011;31519;45.408;10.962;2024-01-25T05:12:57;47.42;;;24.30;;
45812;SDS011;31519;45.408;10.962;2024-01-25T05:15:25;54.78;;;24.67;;
45812;SDS011;31519;45.408;10.962;2024-01-25T05:17:54;46.97;;;22.55;;
45812;SDS011;31519;45.408;10.962;2024-01-25T05:20:22;56.40;;;23.83;;
45812;SDS011;31519;45.408;10.962;2024-01-25T05:22:51;51.75;;;24.30;;
45812;SDS011;31519;45.408;10.962;2024-01-25T05:25:19;61.05;;;24.00;;
45812;SDS011;31519;45.408;10.962;2024-01-25T05:27:48;48.45;;;25.35;;
45812;SDS011;31519;45.408;10.962;2024-01-25T05:30:17;47.95;;;24.45;;
45812;SDS011;31519;45.408;10.962;2024-01-25T05:32:45;50.95;;;22.75;;
45812;SDS011;31519;45.408;10.962;2024-01-25T05:35:14;45.42;;;21.45;;
45812;SDS011;31519;45.408;10.962;2024-01-25T05:37:42;44.47;;;21.45;;
45812;SDS011;31519;45.408;10.962;2024-01-25T05:40:11;42.85;;;21.05;;
45812;SDS011;31519;45.408;10.962;2024-01-25T05:42:40;44.95;;;20.88;;
45812;SDS011;31519;45.408;10.962;2024-01-25T05:45:09;50.67;;;20.30;;
45812;SDS011;31519;45.408;10.962;2024-01-25T05:47:37;40.13;;;20.67;;
45812;SDS011;31519;45.408;10.962;2024-01-25T05:50:06;49.72;;;21.48;;
45812;SDS011;31519;45.408;10.962;2024-01-25T05:52:34;48.78;;;21.63;;
45812;SDS011;31519;45.408;10.962;2024-01-25T05:55:06;48.47;;;21.67;;
45812;SDS011;31519;45.408;10.962;2024-01-25T05:57:35;39.70;;;20.95;;
45812;SDS011;31519;45.408;10.962;2024-01-25T06:00:05;54.90;;;23.15;;
45812;SDS011;31519;45.408;10.962;2024-01-25T06:02:36;47.10;;;21.30;;
45812;SDS011;31519;45.408;10.962;2024-01-25T06:05:05;49.47;;;21.30;;
45812;SDS011;31519;45.408;10.962;2024-01-25T06:07:33;62.53;;;25.33;;
45812;SDS011;31519;45.408;10.962;2024-01-25T06:10:02;47.08;;;22.27;;
45812;SDS011;31519;45.408;10.962;2024-01-25T06:12:31;46.65;;;22.25;;
45812;SDS011;31519;45.408;10.962;2024-01-25T06:15:00;49.03;;;23.58;;
45812;SDS011;31519;45.408;10.962;2024-01-25T06:17:28;52.72;;;23.67;;
45812;SDS011;31519;45.408;10.962;2024-01-25T06:19:57;53.53;;;23.80;;
45812;SDS011;31519;45.408;10.962;2024-01-25T06:22:25;43.03;;;21.88;;
45812;SDS011;31519;45.408;10.962;2024-01-25T06:24:54;53.65;;;24.15;;
45812;SDS011;31519;45.408;10.962;2024-01-25T06:27:22;49.50;;;24.75;;
45812;SDS011;31519;45.408;10.962;2024-01-25T06:29:50;51.88;;;24.98;;
45812;SDS011;31519;45.408;10.962;2024-01-25T06:32:18;46.63;;;24.73;;
45812;SDS011;31519;45.408;10.962;2024-01-25T06:34:53;55.13;;;25.00;;
45812;SDS011;31519;45.408;10.962;2024-01-25T06:37:22;68.78;;;25.35;;
45812;SDS011;31519;45.408;10.962;2024-01-25T06:39:50;62.08;;;26.98;;
45812;SDS011;31519;45.408;10.962;2024-01-25T06:42:19;51.80;;;25.83;;
45812;SDS011;31519;45.408;10.962;2024-01-25T06:44:47;57.28;;;25.63;;
45812;SDS011;31519;45.408;10.962;2024-01-25T06:47:15;61.45;;;26.35;;
45812;SDS011;31519;45.408;10.962;2024-01-25T06:49:45;56.83;;;26.50;;
45812;SDS011;31519;45.408;10.962;2024-01-25T06:52:17;58.58;;;26.27;;
45812;SDS011;31519;45.408;10.962;2024-01-25T06:54:47;62.28;;;27.50;;
45812;SDS011;31519;45.408;10.962;2024-01-25T06:57:16;62.00;;;26.35;;
45812;SDS011;31519;45.408;10.962;2024-01-25T06:59:46;50.78;;;26.00;;
45812;SDS011;31519;45.408;10.962;2024-01-25T07:02:14;56.20;;;25.67;;
45812;SDS011;31519;45.408;10.962;2024-01-25T07:04:43;68.88;;;25.00;;
45812;SDS011;31519;45.408;10.962;2024-01-25T07:07:12;56.42;;;26.02;;
45812;SDS011;31519;45.408;10.962;2024-01-25T07:09:41;46.80;;;24.48;;
45812;SDS011;31519;45.408;10.962;2024-01-25T07:12:09;67.57;;;27.67;;
45812;SDS011;31519;45.408;10.962;2024-01-25T07:14:37;53.97;;;26.10;;
45812;SDS011;31519;45.408;10.962;2024-01-25T07:17:05;57.75;;;26.15;;
45812;SDS011;31519;45.408;10.962;2024-01-25T07:19:34;62.78;;;25.70;;
45812;SDS011;31519;45.408;10.962;2024-01-25T07:22:02;58.40;;;25.73;;
45812;SDS011;31519;45.408;10.962;2024-01-25T07:24:31;65.30;;;27.20;;
45812;SDS011;31519;45.408;10.962;2024-01-25T07:26:59;52.10;;;25.38;;
45812;SDS011;31519;45.408;10.962;2024-01-25T07:29:28;60.67;;;27.13;;
45812;SDS011;31519;45.408;10.962;2024-01-25T07:31:56;58.65;;;27.70;;
45812;SDS011;31519;45.408;10.962;2024-01-25T07:34:25;57.35;;;26.02;;
45812;SDS011;31519;45.408;10.962;2024-01-25T07:36:53;60.55;;;25.90;;
45812;SDS011;31519;45.408;10.962;2024-01-25T07:39:21;63.85;;;25.83;;
45812;SDS011;31519;45.408;10.962;2024-01-25T07:41:50;51.20;;;25.65;;
45812;SDS011;31519;45.408;10.962;2024-01-25T07:44:19;52.72;;;24.05;;
45812;SDS011;31519;45.408;10.962;2024-01-25T07:46:47;62.20;;;26.70;;
45812;SDS011;31519;45.408;10.962;2024-01-25T07:49:16;58.42;;;24.98;;
45812;SDS011;31519;45.408;10.962;2024-01-25T07:51:45;51.72;;;25.27;;
45812;SDS011;31519;45.408;10.962;2024-01-25T07:54:14;48.05;;;22.63;;
45812;SDS011;31519;45.408;10.962;2024-01-25T07:56:42;69.22;;;25.50;;
45812;SDS011;31519;45.408;10.962;2024-01-25T07:59:11;49.47;;;25.90;;
45812;SDS011;31519;45.408;10.962;2024-01-25T08:01:39;65.60;;;26.45;;
45812;SDS011;31519;45.408;10.962;2024-01-25T08:04:07;64.60;;;25.75;;
45812;SDS011;31519;45.408;10.962;2024-01-25T08:06:36;57.00;;;27.17;;
45812;SDS011;31519;45.408;10.962;2024-01-25T08:09:05;115.57;;;48.53;;
45812;SDS011;31519;45.408;10.962;2024-01-25T08:11:33;82.50;;;32.90;;
45812;SDS011;31519;45.408;10.962;2024-01-25T08:14:01;59.47;;;25.77;;
45812;SDS011;31519;45.408;10.962;2024-01-25T08:16:31;55.80;;;27.48;;
45812;SDS011;31519;45.408;10.962;2024-01-25T08:19:00;54.75;;;28.15;;
45812;SDS011;31519;45.408;10.962;2024-01-25T08:21:29;58.55;;;29.38;;
45812;SDS011;31519;45.408;10.962;2024-01-25T08:23:57;61.42;;;29.10;;
45812;SDS011;31519;45.408;10.962;2024-01-25T08:26:25;53.50;;;28.27;;
45812;SDS011;31519;45.408;10.962;2024-01-25T08:28:54;68.93;;;28.23;;
45812;SDS011;31519;45.408;10.962;2024-01-25T08:31:22;57.80;;;28.45;;
45812;SDS011;31519;45.408;10.962;2024-01-25T08:33:51;66.35;;;29.88;;
45812;SDS011;31519;45.408;10.962;2024-01-25T08:36:19;63.78;;;28.92;;
45812;SDS011;31519;45.408;10.962;2024-01-25T08:38:47;63.42;;;29.25;;
45812;SDS011;31519;45.408;10.962;2024-01-25T08:41:16;59.08;;;29.35;;
45812;SDS011;31519;45.408;10.962;2024-01-25T08:43:44;73.28;;;30.75;;
45812;SDS011;31519;45.408;10.962;2024-01-25T08:46:13;58.67;;;29.90;;
45812;SDS011;31519;45.408;10.962;2024-01-25T08:48:44;62.63;;;29.13;;
45812;SDS011;31519;45.408;10.962;2024-01-25T08:51:12;60.40;;;30.50;;
45812;SDS011;31519;45.408;10.962;2024-01-25T08:53:41;56.30;;;31.02;;
45812;SDS011;31519;45.408;10.962;2024-01-25T08:56:09;64.65;;;32.38;;
45812;SDS011;31519;45.408;10.962;2024-01-25T08:58:37;69.43;;;32.65;;
45812;SDS011;31519;45.408;10.962;2024-01-25T09:01:05;61.05;;;30.75;;
45812;SDS011;31519;45.408;10.962;2024-01-25T09:03:34;68.75;;;32.58;;
45812;SDS011;31519;45.408;10.962;2024-01-25T09:06:02;63.55;;;32.55;;
45812;SDS011;31519;45.408;10.962;2024-01-25T09:08:34;65.85;;;32.10;;
45812;SDS011;31519;45.408;10.962;2024-01-25T09:11:02;58.65;;;29.75;;
45812;SDS011;31519;45.408;10.962;2024-01-25T09:13:32;61.25;;;32.08;;
45812;SDS011;31519;45.408;10.962;2024-01-25T09:16:11;61.20;;;30.85;;
45812;SDS011;31519;45.408;10.962;2024-01-25T09:18:40;50.90;;;28.52;;
45812;SDS011;31519;45.408;10.962;2024-01-25T09:21:08;63.92;;;31.60;;
45812;SDS011;31519;45.408;10.962;2024-01-25T09:23:37;55.70;;;28.15;;
45812;SDS011;31519;45.408;10.962;2024-01-25T09:26:05;55.25;;;27.27;;
45812;SDS011;31519;45.408;10.962;2024-01-25T09:28:33;57.40;;;27.05;;
45812;SDS011;31519;45.408;10.962;2024-01-25T09:31:02;58.22;;;27.95;;
45812;SDS011;31519;45.408;10.962;2024-01-25T09:33:32;57.88;;;27.50;;
45812;SDS011;31519;45.408;10.962;2024-01-25T09:36:02;56.72;;;30.17;;
45812;SDS011;31519;45.408;10.962;2024-01-25T09:38:31;49.15;;;27.85;;
45812;SDS011;31519;45.408;10.962;2024-01-25T09:41:00;57.25;;;28.98;;
45812;SDS011;31519;45.408;10.962;2024-01-25T09:43:29;58.40;;;27.58;;
45812;SDS011;31519;45.408;10.962;2024-01-25T09:45:58;55.25;;;26.65;;
45812;SDS011;31519;45.408;10.962;2024-01-25T09:48:28;54.53;;;26.83;;
45812;SDS011;31519;45.408;10.962;2024-01-25T09:50:56;59.78;;;28.08;;
45812;SDS011;31519;45.408;10.962;2024-01-25T09:53:27;49.28;;;26.25;;
45812;SDS011;31519;45.408;10.962;2024-01-25T09:56:11;55.50;;;27.90;;
45812;SDS011;31519;45.408;10.962;2024-01-25T09:58:42;49.30;;;24.25;;
45812;SDS011;31519;45.408;10.962;2024-01-25T10:01:14;42.47;;;23.27;;
45812;SDS011;31519;45.408;10.962;2024-01-25T10:03:44;44.85;;;24.95;;
45812;SDS011;31519;45.408;10.962;2024-01-25T10:06:14;46.97;;;22.88;;
45812;SDS011;31519;45.408;10.962;2024-01-25T10:08:44;42.30;;;22.23;;
45812;SDS011;31519;45.408;10.962;2024-01-25T10:11:12;41.03;;;22.80;;
45812;SDS011;31519;45.408;10.962;2024-01-25T10:13:42;35.05;;;21.02;;
45812;SDS011;31519;45.408;10.962;2024-01-25T10:16:16;40.67;;;21.25;;
45812;SDS011;31519;45.408;10.962;2024-01-25T10:18:46;47.97;;;21.25;;
45812;SDS011;31519;45.408;10.962;2024-01-25T10:21:17;39.03;;;22.92;;
45812;SDS011;31519;45.408;10.962;2024-01-25T10:23:46;44.80;;;23.58;;
45812;SDS011;31519;45.408;10.962;2024-01-25T10:26:15;56.15;;;24.63;;
45812;SDS011;31519;45.408;10.962;2024-01-25T10:28:54;50.38;;;24.17;;
45812;SDS011;31519;45.408;10.962;2024-01-25T10:31:29;49.63;;;24.17;;
45812;SDS011;31519;45.408;10.962;2024-01-25T10:34:00;51.33;;;25.02;;
45812;SDS011;31519;45.408;10.962;2024-01-25T10:36:29;46.55;;;25.23;;
45812;SDS011;31519;45.408;10.962;2024-01-25T10:39:00;48.22;;;26.02;;
45812;SDS011;31519;45.408;10.962;2024-01-25T10:41:32;52.15;;;27.30;;
45812;SDS011;31519;45.408;10.962;2024-01-25T10:44:04;44.67;;;24.73;;
45812;SDS011;31519;45.408;10.962;2024-01-25T10:46:34;50.28;;;26.27;;
45812;SDS011;31519;45.408;10.962;2024-01-25T10:49:07;48.08;;;28.02;;
45812;SDS011;31519;45.408;10.962;2024-01-25T10:51:36;47.22;;;25.23;;
45812;SDS011;31519;45.408;10.962;2024-01-25T10:54:05;39.78;;;24.98;;
45812;SDS011;31519;45.408;10.962;2024-01-25T10:56:35;45.55;;;24.58;;
45812;SDS011;31519;45.408;10.962;2024-01-25T10:59:04;48.75;;;25.75;;
45812;SDS011;31519;45.408;10.962;2024-01-25T11:01:34;45.53;;;26.70;;
45812;SDS011;31519;45.408;10.962;2024-01-25T11:04:12;43.55;;;24.55;;
45812;SDS011;31519;45.408;10.962;2024-01-25T11:06:44;49.83;;;26.63;;
45812;SDS011;31519;45.408;10.962;2024-01-25T11:09:17;49.10;;;27.98;;
45812;SDS011;31519;45.408;10.962;2024-01-25T11:11:47;49.05;;;28.48;;
45812;SDS011;31519;45.408;10.962;2024-01-25T11:14:19;51.35;;;28.30;;
45812;SDS011;31519;45.408;10.962;2024-01-25T11:17:21;48.63;;;27.42;;
45812;SDS011;31519;45.408;10.962;2024-01-25T11:19:50;51.55;;;27.13;;
45812;SDS011;31519;45.408;10.962;2024-01-25T11:22:19;49.95;;;26.63;;
45812;SDS011;31519;45.408;10.962;2024-01-25T11:24:48;52.78;;;27.83;;
45812;SDS011;31519;45.408;10.962;2024-01-25T11:27:17;51.90;;;27.83;;
45812;SDS011;31519;45.408;10.962;2024-01-25T11:29:46;47.72;;;27.88;;
45812;SDS011;31519;45.408;10.962;2024-01-25T11:32:14;49.70;;;28.92;;
45812;SDS011;31519;45.408;10.962;2024-01-25T11:34:43;49.58;;;26.67;;
45812;SDS011;31519;45.408;10.962;2024-01-25T11:37:12;42.92;;;26.92;;
45812;SDS011;31519;45.408;10.962;2024-01-25T11:39:41;55.45;;;31.25;;
45812;SDS011;31519;45.408;10.962;2024-01-25T11:42:11;42.83;;;28.13;;
45812;SDS011;31519;45.408;10.962;2024-01-25T11:44:39;51.10;;;30.30;;
45812;SDS011;31519;45.408;10.962;2024-01-25T11:47:07;47.97;;;29.90;;
45812;SDS011;31519;45.408;10.962;2024-01-25T11:49:36;61.97;;;30.83;;
45812;SDS011;31519;45.408;10.962;2024-01-25T11:52:05;53.80;;;30.65;;
45812;SDS011;31519;45.408;10.962;2024-01-25T11:54:33;51.28;;;30.17;;
45812;SDS011;31519;45.408;10.962;2024-01-25T11:57:03;56.50;;;28.90;;
45812;SDS011;31519;45.408;10.962;2024-01-25T11:59:31;54.95;;;31.52;;
45812;SDS011;31519;45.408;10.962;2024-01-25T12:02:00;53.85;;;31.30;;
45812;SDS011;31519;45.408;10.962;2024-01-25T12:04:29;58.92;;;32.20;;
45812;SDS011;31519;45.408;10.962;2024-01-25T12:07:03;61.53;;;31.58;;
45812;SDS011;31519;45.408;10.962;2024-01-25T12:09:32;58.08;;;30.45;;
45812;SDS011;31519;45.408;10.962;2024-01-25T12:12:00;53.28;;;32.35;;
45812;SDS011;31519;45.408;10.962;2024-01-25T12:14:29;51.78;;;30.42;;
45812;SDS011;31519;45.408;10.962;2024-01-25T12:16:57;54.00;;;31.67;;
45812;SDS011;31519;45.408;10.962;2024-01-25T12:19:25;60.80;;;31.75;;
45812;SDS011;31519;45.408;10.962;2024-01-25T12:21:55;62.03;;;31.63;;
45812;SDS011;31519;45.408;10.962;2024-01-25T12:24:24;61.08;;;31.60;;
45812;SDS011;31519;45.408;10.962;2024-01-25T12:26:52;53.63;;;33.13;;
45812;SDS011;31519;45.408;10.962;2024-01-25T12:29:22;66.40;;;31.48;;
45812;SDS011;31519;45.408;10.962;2024-01-25T12:31:51;62.63;;;31.98;;
45812;SDS011;31519;45.408;10.962;2024-01-25T12:34:19;54.35;;;31.23;;
45812;SDS011;31519;45.408;10.962;2024-01-25T12:36:47;54.40;;;31.73;;
45812;SDS011;31519;45.408;10.962;2024-01-25T12:39:16;58.85;;;30.98;;
45812;SDS011;31519;45.408;10.962;2024-01-25T12:41:48;49.70;;;31.17;;
45812;SDS011;31519;45.408;10.962;2024-01-25T12:44:18;65.15;;;31.23;;
45812;SDS011;31519;45.408;10.962;2024-01-25T12:46:47;64.20;;;31.65;;
45812;SDS011;31519;45.408;10.962;2024-01-25T12:49:15;46.63;;;31.48;;
45812;SDS011;31519;45.408;10.962;2024-01-25T12:51:45;52.28;;;31.30;;
45812;SDS011;31519;45.408;10.962;2024-01-25T12:54:13;49.53;;;31.73;;
45812;SDS011;31519;45.408;10.962;2024-01-25T12:56:41;54.60;;;32.50;;
45812;SDS011;31519;45.408;10.962;2024-01-25T12:59:10;52.65;;;31.70;;
45812;SDS011;31519;45.408;10.962;2024-01-25T13:01:39;54.35;;;31.88;;
45812;SDS011;31519;45.408;10.962;2024-01-25T13:04:07;52.47;;;33.15;;
45812;SDS011;31519;45.408;10.962;2024-01-25T13:06:36;68.38;;;33.13;;
45812;SDS011;31519;45.408;10.962;2024-01-25T13:09:06;70.50;;;31.85;;
45812;SDS011;31519;45.408;10.962;2024-01-25T13:11:34;55.97;;;32.35;;
45812;SDS011;31519;45.408;10.962;2024-01-25T13:14:03;57.63;;;33.55;;
45812;SDS011;31519;45.408;10.962;2024-01-25T13:16:31;71.57;;;34.20;;
45812;SDS011;31519;45.408;10.962;2024-01-25T13:18:59;51.85;;;31.65;;
45812;SDS011;31519;45.408;10.962;2024-01-25T13:21:28;57.95;;;30.38;;
45812;SDS011;31519;45.408;10.962;2024-01-25T13:23:56;54.08;;;30.38;;
45812;SDS011;31519;45.408;10.962;2024-01-25T13:26:24;50.20;;;31.15;;
45812;SDS011;31519;45.408;10.962;2024-01-25T13:28:53;53.20;;;31.20;;
45812;SDS011;31519;45.408;10.962;2024-01-25T13:31:21;53.40;;;32.53;;
45812;SDS011;31519;45.408;10.962;2024-01-25T13:33:50;51.92;;;31.52;;
45812;SDS011;31519;45.408;10.962;2024-01-25T13:36:18;56.97;;;30.42;;
45812;SDS011;31519;45.408;10.962;2024-01-25T13:38:47;56.10;;;32.20;;
45812;SDS011;31519;45.408;10.962;2024-01-25T13:41:15;51.88;;;31.42;;
45812;SDS011;31519;45.408;10.962;2024-01-25T13:43:44;67.10;;;32.17;;
45812;SDS011;31519;45.408;10.962;2024-01-25T13:46:12;49.78;;;29.30;;
45812;SDS011;31519;45.408;10.962;2024-01-25T13:48:40;46.25;;;29.55;;
45812;SDS011;31519;45.408;10.962;2024-01-25T13:51:09;52.03;;;30.17;;
45812;SDS011;31519;45.408;10.962;2024-01-25T13:53:37;55.83;;;30.83;;
45812;SDS011;31519;45.408;10.962;2024-01-25T13:56:06;55.95;;;31.25;;
45812;SDS011;31519;45.408;10.962;2024-01-25T13:58:34;44.25;;;27.58;;
45812;SDS011;31519;45.408;10.962;2024-01-25T14:01:02;44.63;;;28.40;;
45812;SDS011;31519;45.408;10.962;2024-01-25T14:03:32;48.55;;;29.15;;
45812;SDS011;31519;45.408;10.962;2024-01-25T14:06:02;45.83;;;30.23;;
45812;SDS011;31519;45.408;10.962;2024-01-25T14:08:38;51.40;;;30.48;;
45812;SDS011;31519;45.408;10.962;2024-01-25T14:11:06;49.22;;;30.27;;
45812;SDS011;31519;45.408;10.962;2024-01-25T14:13:35;57.80;;;35.15;;
45812;SDS011;31519;45.408;10.962;2024-01-25T14:16:03;52.55;;;30.83;;
45812;SDS011;31519;45.408;10.962;2024-01-25T14:18:36;52.03;;;30.83;;
45812;SDS011;31519;45.408;10.962;2024-01-25T14:21:08;51.33;;;31.70;;